createdAt,value
2023-01-07T00:01:24.128Z,0.60
2023-01-07T00:03:51.855Z,0.50
2023-01-07T00:06:29.597Z,0.51
2023-01-07T00:08:57.860Z,0.51
2023-01-07T00:11:34.587Z,0.49
2023-01-07T00:14:01.702Z,0.56
2023-01-07T00:16:30.308Z,0.55
2023-01-07T00:18:58.790Z,0.53
2023-01-07T00:21:26.509Z,0.46
2023-01-07T00:23:57.698Z,0.48
2023-01-07T00:26:26.501Z,0.42
2023-01-07T00:28:53.954Z,0.43
2023-01-07T00:31:22.887Z,0.44
2023-01-07T00:33:59.125Z,0.49
2023-01-07T00:36:30.802Z,0.37
2023-01-07T00:38:59.201Z,0.38
2023-01-07T00:41:26.305Z,0.38
2023-01-07T00:43:52.911Z,0.35
2023-01-07T00:46:20.941Z,0.39
2023-01-07T00:48:47.715Z,0.48
2023-01-07T00:51:16.413Z,0.51
2023-01-07T00:53:43.441Z,0.61
2023-01-07T00:56:11.133Z,0.61
2023-01-07T00:58:37.968Z,0.68
2023-01-07T01:01:04.719Z,0.69
2023-01-07T01:03:32.455Z,0.67
2023-01-07T01:06:07.302Z,0.67
2023-01-07T01:08:34.158Z,0.57
2023-01-07T01:11:05.273Z,0.57
2023-01-07T01:13:32.121Z,0.60
2023-01-07T01:15:58.928Z,0.52
2023-01-07T01:18:25.898Z,0.48
2023-01-07T01:20:52.447Z,0.59
2023-01-07T01:23:19.323Z,0.61
2023-01-07T01:25:45.868Z,0.56
2023-01-07T01:28:12.447Z,0.58
2023-01-07T01:30:39.031Z,0.56
2023-01-07T01:33:05.667Z,0.57
2023-01-07T01:35:32.136Z,0.51
2023-01-07T01:38:00.599Z,0.54
2023-01-07T01:40:30.255Z,0.63
2023-01-07T01:42:56.905Z,0.58
2023-01-07T01:45:24.354Z,0.68
2023-01-07T01:47:55.051Z,0.63
2023-01-07T01:50:31.992Z,0.63
2023-01-07T01:53:07.037Z,0.72
2023-01-07T01:55:47.460Z,0.74
2023-01-07T01:58:18.113Z,0.78
2023-01-07T02:00:44.682Z,0.76
2023-01-07T02:03:13.801Z,0.91
2023-01-07T02:05:41.076Z,0.86
2023-01-07T02:08:08.438Z,0.84
2023-01-07T02:10:35.363Z,0.82
2023-01-07T02:13:39.104Z,0.79
2023-01-07T02:16:38.099Z,0.83
2023-01-07T02:19:22.597Z,0.89
2023-01-07T02:22:07.854Z,0.88
2023-01-07T02:24:36.949Z,0.87
2023-01-07T02:27:11.320Z,0.94
2023-01-07T02:30:11.564Z,0.98
2023-01-07T02:33:04.180Z,0.91
2023-01-07T02:35:36.507Z,0.93
2023-01-07T02:38:27.610Z,0.94
2023-01-07T02:41:29.045Z,0.98
2023-01-07T02:44:35.891Z,0.99
2023-01-07T02:47:11.567Z,1.05
2023-01-07T02:49:38.234Z,1.11
2023-01-07T02:52:17.690Z,1.07
2023-01-07T02:54:44.814Z,1.10
2023-01-07T02:57:48.140Z,1.12
2023-01-07T03:00:17.342Z,1.16
2023-01-07T03:03:07.488Z,1.26
2023-01-07T03:06:02.172Z,1.18
2023-01-07T03:09:04.806Z,1.13
2023-01-07T03:11:41.571Z,1.13
2023-01-07T03:14:20.835Z,1.16
2023-01-07T03:17:00.751Z,1.12
2023-01-07T03:19:32.809Z,1.09
2023-01-07T03:22:00.205Z,1.16
2023-01-07T03:24:28.119Z,1.18
2023-01-07T03:26:56.604Z,1.20
2023-01-07T03:29:23.465Z,1.19
2023-01-07T03:32:00.903Z,1.24
2023-01-07T03:34:28.785Z,1.26
2023-01-07T03:36:58.819Z,1.30
2023-01-07T03:39:27.353Z,1.36
2023-01-07T03:42:13.649Z,1.31
2023-01-07T03:44:40.442Z,1.26
2023-01-07T03:47:07.492Z,1.31
2023-01-07T03:49:35.231Z,1.38
2023-01-07T03:52:01.875Z,1.45
2023-01-07T03:54:28.475Z,1.46
2023-01-07T03:56:55.020Z,1.59
2023-01-07T03:59:21.547Z,1.54
2023-01-07T04:01:48.269Z,1.51
2023-01-07T04:04:14.841Z,1.52
2023-01-07T04:06:41.383Z,1.47
2023-01-07T04:09:07.971Z,1.52
2023-01-07T04:11:34.572Z,1.58
2023-01-07T04:14:01.194Z,1.79
2023-01-07T04:16:27.860Z,1.80
2023-01-07T04:18:54.582Z,1.64
2023-01-07T04:21:21.236Z,1.69
2023-01-07T04:23:47.738Z,1.76
2023-01-07T04:26:14.192Z,1.74
2023-01-07T04:28:40.714Z,1.72
2023-01-07T04:31:07.563Z,1.74
2023-01-07T04:33:34.173Z,1.82
2023-01-07T04:36:00.824Z,1.86
2023-01-07T04:38:27.298Z,1.75
2023-01-07T04:40:53.779Z,1.72
2023-01-07T04:43:20.367Z,1.80
2023-01-07T04:45:46.868Z,1.81
2023-01-07T04:48:13.394Z,1.85
2023-01-07T04:50:40.074Z,2.02
2023-01-07T04:53:06.643Z,2.14
2023-01-07T04:55:33.144Z,2.22
2023-01-07T04:57:59.701Z,2.17
2023-01-07T05:00:26.311Z,2.16
2023-01-07T05:02:52.765Z,2.10
2023-01-07T05:05:22.659Z,2.03
2023-01-07T05:07:49.133Z,2.04
2023-01-07T05:10:15.751Z,1.88
2023-01-07T05:12:42.231Z,1.91
2023-01-07T05:15:09.071Z,1.94
2023-01-07T05:17:35.611Z,1.89
2023-01-07T05:20:02.422Z,1.86
2023-01-07T05:22:28.904Z,1.90
2023-01-07T05:24:55.450Z,1.90
2023-01-07T05:27:22.369Z,1.92
2023-01-07T05:29:48.847Z,1.93
2023-01-07T05:32:15.342Z,1.97
2023-01-07T05:34:42.070Z,1.94
2023-01-07T05:37:08.817Z,1.96
2023-01-07T05:39:35.356Z,2.03
2023-01-07T05:42:02.101Z,2.03
2023-01-07T05:44:28.678Z,2.04
2023-01-07T05:46:55.325Z,2.04
2023-01-07T05:49:21.936Z,2.07
2023-01-07T05:51:48.405Z,2.13
2023-01-07T05:54:14.924Z,2.10
2023-01-07T05:56:41.447Z,2.19
2023-01-07T05:59:07.993Z,2.19
2023-01-07T06:01:34.514Z,2.21
2023-01-07T06:04:01.014Z,2.25
2023-01-07T06:06:27.517Z,2.21
2023-01-07T06:08:53.980Z,2.25
2023-01-07T06:11:20.655Z,2.28
2023-01-07T06:13:47.095Z,2.53
2023-01-07T06:16:14.381Z,2.47
2023-01-07T06:18:41.019Z,2.42
2023-01-07T06:21:07.592Z,2.43
2023-01-07T06:23:34.121Z,2.39
2023-01-07T06:26:00.947Z,2.45
2023-01-07T06:28:27.485Z,2.47
2023-01-07T06:30:54.056Z,2.44
2023-01-07T06:33:21.197Z,2.47
2023-01-07T06:35:47.806Z,2.57
2023-01-07T06:38:14.344Z,2.56
2023-01-07T06:40:40.886Z,2.63
2023-01-07T06:43:07.360Z,2.68
2023-01-07T06:45:33.926Z,2.78
2023-01-07T06:48:00.666Z,2.83
2023-01-07T06:50:27.312Z,2.76
2023-01-07T06:52:53.871Z,2.78
2023-01-07T06:55:20.404Z,2.86
2023-01-07T06:57:47.060Z,2.84
2023-01-07T07:00:13.983Z,2.83
2023-01-07T07:02:40.796Z,2.78
2023-01-07T07:05:07.630Z,2.86
2023-01-07T07:07:34.165Z,2.76
2023-01-07T07:10:04.694Z,2.76
2023-01-07T07:12:31.424Z,2.80
2023-01-07T07:14:57.857Z,2.75
2023-01-07T07:17:24.342Z,2.81
2023-01-07T07:19:50.895Z,2.82
2023-01-07T07:22:17.399Z,2.88
2023-01-07T07:24:43.872Z,2.87
2023-01-07T07:27:10.427Z,2.87
2023-01-07T07:29:36.937Z,2.93
2023-01-07T07:32:03.728Z,2.99
2023-01-07T07:34:30.313Z,3.00
2023-01-07T07:36:56.982Z,3.04
2023-01-07T07:39:23.639Z,3.07
2023-01-07T07:41:50.332Z,3.06
2023-01-07T07:44:16.819Z,3.10
2023-01-07T07:46:43.594Z,3.13
2023-01-07T07:49:11.623Z,3.17
2023-01-07T07:51:38.435Z,3.13
2023-01-07T07:54:05.178Z,3.17
2023-01-07T07:56:31.806Z,3.20
2023-01-07T07:58:58.338Z,3.28
2023-01-07T08:01:25.277Z,3.33
2023-01-07T08:03:52.039Z,3.38
2023-01-07T08:06:20.451Z,3.50
2023-01-07T08:08:47.215Z,3.48
2023-01-07T08:11:13.898Z,3.47
2023-01-07T08:13:40.433Z,3.38
2023-01-07T08:16:07.298Z,3.43
2023-01-07T08:18:34.262Z,3.43
2023-01-07T08:21:00.864Z,3.44
2023-01-07T08:23:28.668Z,3.47
2023-01-07T08:25:59.476Z,3.49
2023-01-07T08:28:26.072Z,3.59
2023-01-07T08:30:52.628Z,3.58
2023-01-07T08:33:19.788Z,3.61
2023-01-07T08:35:46.313Z,3.74
2023-01-07T08:38:12.907Z,3.74
2023-01-07T08:40:39.755Z,3.83
2023-01-07T08:43:08.032Z,3.81
2023-01-07T08:45:34.796Z,3.87
2023-01-07T08:48:01.476Z,3.83
2023-01-07T08:50:29.934Z,3.88
2023-01-07T08:52:56.527Z,3.88
2023-01-07T08:55:23.513Z,3.88
2023-01-07T08:57:50.289Z,3.87
2023-01-07T09:00:18.963Z,3.97
2023-01-07T09:02:47.188Z,4.02
2023-01-07T09:05:14.028Z,3.93
2023-01-07T09:07:40.706Z,3.93
2023-01-07T09:10:09.696Z,4.07
2023-01-07T09:12:36.404Z,3.99
2023-01-07T09:15:03.796Z,4.08
2023-01-07T09:17:30.637Z,4.09
2023-01-07T09:19:57.198Z,4.23
2023-01-07T09:22:23.877Z,4.14
2023-01-07T09:24:50.566Z,4.19
2023-01-07T09:27:17.203Z,4.08
2023-01-07T09:29:43.923Z,4.12
2023-01-07T09:32:10.622Z,4.00
2023-01-07T09:34:38.401Z,3.93
2023-01-07T09:37:06.077Z,3.87
2023-01-07T09:39:32.698Z,3.95
2023-01-07T09:42:27.218Z,3.97
2023-01-07T09:45:10.307Z,4.13
2023-01-07T09:47:38.477Z,4.02
2023-01-07T09:50:20.345Z,3.80
2023-01-07T09:52:50.869Z,3.77
2023-01-07T09:55:24.439Z,3.83
2023-01-07T09:57:51.018Z,3.68
2023-01-07T10:00:21.854Z,3.73
2023-01-07T10:02:54.498Z,3.80
2023-01-07T10:05:29.237Z,3.77
2023-01-07T10:08:29.387Z,3.86
2023-01-07T10:11:17.833Z,3.87
2023-01-07T10:13:54.444Z,4.04
2023-01-07T10:16:36.906Z,4.20
2023-01-07T10:19:48.728Z,4.10
2023-01-07T10:22:34.160Z,4.28
2023-01-07T10:25:04.796Z,4.27
2023-01-07T10:27:35.480Z,4.43
2023-01-07T10:30:07.439Z,4.63
2023-01-07T10:32:36.713Z,4.93
2023-01-07T10:35:04.754Z,5.01
2023-01-07T10:37:41.647Z,5.18
2023-01-07T10:40:12.029Z,5.16
2023-01-07T10:42:57.582Z,5.20
2023-01-07T10:45:33.710Z,5.21
2023-01-07T10:48:21.947Z,5.17
2023-01-07T10:51:06.842Z,5.21
2023-01-07T10:53:51.834Z,5.18
2023-01-07T10:56:32.507Z,5.15
2023-01-07T10:59:04.087Z,5.11
2023-01-07T11:01:36.066Z,4.89
2023-01-07T11:04:03.645Z,4.92
2023-01-07T11:06:37.035Z,5.07
2023-01-07T11:09:06.298Z,5.10
2023-01-07T11:11:33.695Z,5.10
2023-01-07T11:14:03.709Z,5.02
2023-01-07T11:16:36.200Z,4.99
2023-01-07T11:19:11.124Z,4.96
2023-01-07T11:21:45.886Z,4.98
2023-01-07T11:24:24.448Z,4.96
2023-01-07T11:26:51.132Z,5.10
2023-01-07T11:29:24.930Z,5.19
2023-01-07T11:31:59.472Z,5.21
2023-01-07T11:34:37.582Z,5.27
2023-01-07T11:37:04.700Z,5.37
2023-01-07T11:39:33.787Z,5.46
2023-01-07T11:42:36.993Z,5.34
2023-01-07T11:45:15.217Z,5.21
2023-01-07T11:47:47.605Z,5.27
2023-01-07T11:50:26.663Z,5.49
2023-01-07T11:53:16.457Z,5.53
2023-01-07T11:56:00.005Z,5.54
2023-01-07T11:58:31.102Z,5.73
2023-01-07T12:01:04.048Z,5.90
2023-01-07T12:03:31.170Z,6.02
2023-01-07T12:05:59.206Z,6.09
2023-01-07T12:08:27.329Z,6.25
2023-01-07T12:10:55.916Z,6.46
2023-01-07T12:13:26.133Z,6.60
2023-01-07T12:15:55.454Z,6.74
2023-01-07T12:18:33.916Z,6.81
2023-01-07T12:21:15.505Z,6.84
2023-01-07T12:24:08.213Z,6.71
2023-01-07T12:26:51.738Z,6.83
2023-01-07T12:29:36.277Z,6.92
2023-01-07T12:32:26.818Z,6.83
2023-01-07T12:34:58.965Z,6.72
2023-01-07T12:37:56.863Z,6.67
2023-01-07T12:40:32.086Z,6.51
2023-01-07T12:43:20.741Z,6.41
2023-01-07T12:46:00.566Z,6.24
2023-01-07T12:48:36.608Z,6.19
2023-01-07T12:51:11.171Z,6.12
2023-01-07T12:53:51.787Z,6.16
2023-01-07T12:56:23.774Z,6.10
2023-01-07T12:58:57.804Z,6.10
2023-01-07T13:01:35.978Z,6.03
2023-01-07T13:04:13.432Z,6.10
2023-01-07T13:06:45.104Z,6.18
2023-01-07T13:09:27.376Z,6.31
2023-01-07T13:12:43.460Z,6.42
2023-01-07T13:15:12.467Z,6.58
2023-01-07T13:17:40.776Z,6.69
2023-01-07T13:20:12.597Z,6.74
2023-01-07T13:22:51.685Z,6.71
2023-01-07T13:25:36.996Z,6.84
2023-01-07T13:28:47.301Z,6.68
2023-01-07T13:31:22.807Z,6.47
2023-01-07T13:33:56.305Z,6.27
2023-01-07T13:36:36.653Z,6.20
2023-01-07T13:39:21.355Z,5.95
2023-01-07T13:41:59.989Z,5.54
2023-01-07T13:44:49.346Z,5.37
2023-01-07T13:47:20.824Z,5.32
2023-01-07T13:49:58.730Z,5.20
2023-01-07T13:52:28.770Z,5.25
2023-01-07T13:55:00.365Z,5.15
2023-01-07T13:57:40.473Z,5.07
2023-01-07T14:00:43.417Z,4.89
2023-01-07T14:03:28.235Z,4.73
2023-01-07T14:06:22.218Z,4.64
2023-01-07T14:08:52.622Z,4.65
2023-01-07T14:11:21.398Z,4.59
2023-01-07T14:13:58.613Z,4.54
2023-01-07T14:16:29.562Z,4.56
2023-01-07T14:19:03.596Z,4.46
2023-01-07T14:21:40.394Z,4.43
2023-01-07T14:24:25.945Z,4.50
2023-01-07T14:27:28.189Z,4.65
2023-01-07T14:29:59.428Z,4.50
2023-01-07T14:32:34.782Z,4.57
2023-01-07T14:35:28.941Z,4.49
2023-01-07T14:37:55.682Z,4.58
2023-01-07T14:40:34.404Z,4.70
2023-01-07T14:43:03.209Z,4.56
2023-01-07T14:45:41.802Z,4.49
2023-01-07T14:48:08.358Z,4.51
2023-01-07T14:50:35.057Z,4.46
2023-01-07T14:53:10.403Z,4.38
2023-01-07T14:56:12.080Z,4.34
2023-01-07T14:58:38.545Z,4.29
2023-01-07T15:01:28.792Z,4.32
2023-01-07T15:04:23.978Z,4.32
2023-01-07T15:06:50.966Z,4.32
2023-01-07T15:09:39.701Z,4.41
2023-01-07T15:12:29.530Z,4.45
2023-01-07T15:15:34.862Z,4.39
2023-01-07T15:18:01.628Z,4.25
2023-01-07T15:21:00.130Z,4.38
2023-01-07T15:23:32.217Z,4.36
2023-01-07T15:26:01.616Z,4.21
2023-01-07T15:28:46.237Z,4.12
2023-01-07T15:31:19.990Z,4.11
2023-01-07T15:34:11.213Z,4.11
2023-01-07T15:36:43.765Z,4.15
2023-01-07T15:39:27.994Z,4.19
2023-01-07T15:41:55.573Z,4.18
2023-01-07T15:44:42.394Z,4.26
2023-01-07T15:47:27.621Z,4.38
2023-01-07T15:49:54.130Z,4.41
2023-01-07T15:52:24.879Z,4.25
2023-01-07T15:54:51.457Z,4.37
2023-01-07T15:57:29.118Z,4.44
2023-01-07T15:59:56.048Z,4.31
2023-01-07T16:02:29.812Z,4.22
2023-01-07T16:05:01.222Z,4.20
2023-01-07T16:07:44.006Z,4.19
2023-01-07T16:10:40.468Z,4.23
2023-01-07T16:13:19.953Z,4.23
2023-01-07T16:15:46.630Z,4.31
2023-01-07T16:18:14.798Z,4.26
2023-01-07T16:20:43.691Z,4.23
2023-01-07T16:23:10.340Z,4.23
2023-01-07T16:25:50.885Z,4.25
2023-01-07T16:28:27.042Z,4.36
2023-01-07T16:30:55.036Z,4.55
2023-01-07T16:33:23.324Z,4.61
2023-01-07T16:35:51.345Z,4.48
2023-01-07T16:38:19.330Z,4.45
2023-01-07T16:40:47.824Z,4.39
2023-01-07T16:43:29.723Z,4.42
2023-01-07T16:46:25.110Z,4.41
2023-01-07T16:49:20.444Z,4.46
2023-01-07T16:51:51.837Z,4.46
2023-01-07T16:54:23.472Z,4.31
2023-01-07T16:56:54.511Z,4.26
2023-01-07T16:59:22.907Z,4.20
2023-01-07T17:01:49.604Z,4.07
2023-01-07T17:04:19.890Z,4.13
2023-01-07T17:06:46.614Z,3.97
2023-01-07T17:09:36.646Z,3.88
2023-01-07T17:12:03.741Z,3.92
2023-01-07T17:14:33.281Z,3.94
2023-01-07T17:17:19.602Z,3.95
2023-01-07T17:19:50.608Z,3.91
2023-01-07T17:22:38.205Z,3.87
2023-01-07T17:25:16.351Z,3.93
2023-01-07T17:27:45.450Z,3.91
2023-01-07T17:30:17.821Z,4.01
2023-01-07T17:32:45.049Z,4.01
2023-01-07T17:35:22.439Z,4.04
2023-01-07T17:37:51.532Z,4.03
2023-01-07T17:40:18.644Z,4.07
2023-01-07T17:43:05.021Z,4.15
2023-01-07T17:45:31.978Z,4.19
2023-01-07T17:47:59.873Z,4.18
2023-01-07T17:50:30.647Z,4.23
2023-01-07T17:52:57.172Z,4.20
2023-01-07T17:55:26.708Z,4.28
2023-01-07T17:57:53.457Z,4.32
2023-01-07T18:00:22.866Z,4.37
2023-01-07T18:02:49.768Z,4.34
2023-01-07T18:05:21.909Z,4.32
2023-01-07T18:07:49.351Z,4.38
2023-01-07T18:10:18.374Z,4.43
2023-01-07T18:12:45.240Z,4.42
2023-01-07T18:15:24.169Z,4.55
2023-01-07T18:17:51.294Z,4.58
2023-01-07T18:20:19.660Z,4.49
2023-01-07T18:22:46.700Z,4.47
2023-01-07T18:25:21.243Z,4.42
2023-01-07T18:27:49.248Z,4.38
2023-01-07T18:30:18.951Z,4.46
2023-01-07T18:32:46.057Z,4.50
2023-01-07T18:35:12.747Z,4.49
2023-01-07T18:37:39.318Z,4.55
2023-01-07T18:40:07.492Z,4.57
2023-01-07T18:42:34.787Z,4.56
2023-01-07T18:45:01.696Z,4.65
2023-01-07T18:47:28.424Z,4.70
2023-01-07T18:49:54.870Z,4.70
2023-01-07T18:52:21.514Z,4.65
2023-01-07T18:54:48.335Z,4.60
2023-01-07T18:57:14.800Z,4.65
2023-01-07T18:59:41.590Z,4.60
2023-01-07T19:02:14.849Z,4.60
2023-01-07T19:04:41.527Z,4.68
2023-01-07T19:07:08.524Z,4.70
2023-01-07T19:09:35.239Z,4.63
2023-01-07T19:12:01.738Z,4.65
2023-01-07T19:14:28.354Z,4.70
2023-01-07T19:16:56.794Z,4.70
2023-01-07T19:19:23.525Z,4.68
2023-01-07T19:21:50.201Z,4.61
2023-01-07T19:24:16.860Z,4.65
2023-01-07T19:26:43.849Z,4.60
2023-01-07T19:29:11.751Z,4.54
2023-01-07T19:31:39.963Z,4.52
2023-01-07T19:34:06.574Z,4.56
2023-01-07T19:36:33.055Z,4.52
2023-01-07T19:38:59.675Z,4.51
2023-01-07T19:41:26.573Z,4.57
2023-01-07T19:43:57.826Z,4.52
2023-01-07T19:46:25.598Z,4.53
2023-01-07T19:48:52.227Z,4.56
2023-01-07T19:51:19.093Z,4.47
2023-01-07T19:53:47.968Z,4.47
2023-01-07T19:56:14.571Z,4.35
2023-01-07T19:58:41.871Z,4.34
2023-01-07T20:01:12.136Z,4.37
2023-01-07T20:03:39.147Z,4.34
2023-01-07T20:06:11.407Z,4.29
2023-01-07T20:08:39.006Z,4.26
2023-01-07T20:11:06.042Z,4.27
2023-01-07T20:13:34.361Z,4.27
2023-01-07T20:16:09.535Z,4.29
2023-01-07T20:18:41.511Z,4.27
2023-01-07T20:21:09.442Z,4.27
2023-01-07T20:23:37.491Z,4.17
2023-01-07T20:26:06.655Z,4.07
2023-01-07T20:28:33.635Z,4.01
2023-01-07T20:31:00.421Z,3.98
2023-01-07T20:33:26.930Z,3.97
2023-01-07T20:36:05.445Z,4.01
2023-01-07T20:38:33.548Z,4.01
2023-01-07T20:41:00.245Z,4.08
2023-01-07T20:43:26.985Z,4.06
2023-01-07T20:45:58.579Z,4.05
2023-01-07T20:48:25.291Z,4.09
2023-01-07T20:50:52.075Z,4.11
2023-01-07T20:53:19.019Z,4.04
2023-01-07T20:55:45.631Z,4.16
2023-01-07T20:58:12.498Z,4.12
2023-01-07T21:00:40.922Z,4.05
2023-01-07T21:03:08.356Z,4.16
2023-01-07T21:05:37.625Z,4.12
2023-01-07T21:08:04.258Z,4.15
2023-01-07T21:10:30.879Z,4.10
2023-01-07T21:12:57.698Z,4.11
2023-01-07T21:15:24.588Z,4.16
2023-01-07T21:17:53.838Z,4.15
2023-01-07T21:20:23.551Z,4.13
2023-01-07T21:22:50.106Z,4.08
2023-01-07T21:25:16.613Z,4.04
2023-01-07T21:27:43.447Z,4.13
2023-01-07T21:30:16.325Z,4.15
2023-01-07T21:32:43.114Z,4.11
2023-01-07T21:35:10.946Z,4.12
2023-01-07T21:37:38.090Z,4.09
2023-01-07T21:40:06.187Z,4.09
2023-01-07T21:42:34.653Z,4.09
2023-01-07T21:45:01.238Z,4.17
2023-01-07T21:47:27.853Z,4.14
2023-01-07T21:49:54.547Z,4.15
2023-01-07T21:52:21.045Z,4.18
2023-01-07T21:54:47.603Z,4.14
2023-01-07T21:57:14.257Z,4.10
2023-01-07T21:59:40.880Z,4.12
2023-01-07T22:02:07.546Z,4.05
2023-01-07T22:04:34.972Z,4.06
2023-01-07T22:07:01.425Z,4.06
2023-01-07T22:09:27.880Z,4.10
2023-01-07T22:11:54.857Z,4.12
2023-01-07T22:14:23.027Z,4.03
2023-01-07T22:16:49.585Z,4.08
2023-01-07T22:19:16.268Z,4.05
2023-01-07T22:21:42.844Z,3.97
2023-01-07T22:24:09.478Z,3.95
2023-01-07T22:26:36.421Z,3.91
2023-01-07T22:29:06.963Z,3.89
2023-01-07T22:31:38.627Z,3.94
2023-01-07T22:34:06.244Z,3.91
2023-01-07T22:36:35.946Z,3.87
2023-01-07T22:39:05.271Z,3.87
2023-01-07T22:41:33.244Z,3.82
2023-01-07T22:44:03.273Z,3.87
2023-01-07T22:46:31.063Z,3.83
2023-01-07T22:48:58.227Z,3.86
2023-01-07T22:51:30.832Z,3.88
2023-01-07T22:53:59.635Z,3.90
2023-01-07T22:56:26.415Z,3.89
2023-01-07T22:58:53.051Z,3.88
2023-01-07T23:01:23.129Z,3.79
2023-01-07T23:03:49.855Z,3.76
2023-01-07T23:06:16.561Z,3.73
2023-01-07T23:08:44.403Z,3.84
2023-01-07T23:11:11.393Z,3.78
2023-01-07T23:13:38.251Z,3.79
2023-01-07T23:16:06.724Z,3.80
2023-01-07T23:18:33.603Z,3.76
2023-01-07T23:21:00.125Z,3.71
2023-01-07T23:23:26.780Z,3.75
2023-01-07T23:25:53.258Z,3.71
2023-01-07T23:28:20.467Z,3.72
2023-01-07T23:30:48.473Z,3.74
2023-01-07T23:33:14.970Z,3.73
2023-01-07T23:35:41.475Z,3.63
2023-01-07T23:38:08.027Z,3.69
2023-01-07T23:40:34.602Z,3.69
2023-01-07T23:43:01.097Z,3.67
2023-01-07T23:45:27.870Z,3.63
2023-01-07T23:47:54.349Z,3.71
2023-01-07T23:50:20.901Z,3.61
2023-01-07T23:52:47.364Z,3.68
2023-01-07T23:55:13.979Z,3.62
2023-01-07T23:57:40.614Z,3.65
